sensor_id;sensor_type;location;lat;lon;timestamp;P1;durP1;ratioP1;P2;durP2;ratioP2
71091;SDS011;58751;50.708;7.134;2023-09-07T00:00:16;9.93;;;8.83;;
71091;SDS011;58751;50.708;7.134;2023-09-07T00:02:43;8.90;;;8.20;;
71091;SDS011;58751;50.708;7.134;2023-09-07T00:05:09;9.43;;;8.53;;
71091;SDS011;58751;50.708;7.134;2023-09-07T00:07:34;8.97;;;8.03;;
71091;SDS011;58751;50.708;7.134;2023-09-07T00:10:00;9.10;;;8.30;;
71091;SDS011;58751;50.708;7.134;2023-09-07T00:12:25;9.33;;;8.53;;
71091;SDS011;58751;50.708;7.134;2023-09-07T00:14:51;8.90;;;8.20;;
71091;SDS011;58751;50.708;7.134;2023-09-07T00:17:17;10.23;;;9.20;;
71091;SDS011;58751;50.708;7.134;2023-09-07T00:19:43;8.70;;;7.90;;
71091;SDS011;58751;50.708;7.134;2023-09-07T00:22:09;10.57;;;9.40;;
71091;SDS011;58751;50.708;7.134;2023-09-07T00:24:34;10.33;;;9.43;;
71091;SDS011;58751;50.708;7.134;2023-09-07T00:27:00;9.97;;;9.20;;
71091;SDS011;58751;50.708;7.134;2023-09-07T00:29:25;11.30;;;10.40;;
71091;SDS011;58751;50.708;7.134;2023-09-07T00:31:50;10.23;;;9.33;;
71091;SDS011;58751;50.708;7.134;2023-09-07T00:34:16;10.80;;;9.77;;
71091;SDS011;58751;50.708;7.134;2023-09-07T00:36:43;11.10;;;10.10;;
71091;SDS011;58751;50.708;7.134;2023-09-07T00:39:08;10.93;;;9.83;;
71091;SDS011;58751;50.708;7.134;2023-09-07T00:41:34;11.50;;;10.40;;
71091;SDS011;58751;50.708;7.134;2023-09-07T00:44:00;11.87;;;10.60;;
71091;SDS011;58751;50.708;7.134;2023-09-07T00:46:25;10.23;;;9.33;;
71091;SDS011;58751;50.708;7.134;2023-09-07T00:48:51;11.83;;;10.83;;
71091;SDS011;58751;50.708;7.134;2023-09-07T00:51:16;11.87;;;9.33;;
71091;SDS011;58751;50.708;7.134;2023-09-07T00:53:43;11.23;;;10.07;;
71091;SDS011;58751;50.708;7.134;2023-09-07T00:56:08;11.17;;;10.17;;
71091;SDS011;58751;50.708;7.134;2023-09-07T00:58:34;10.43;;;9.63;;
71091;SDS011;58751;50.708;7.134;2023-09-07T01:00:59;11.23;;;10.00;;
71091;SDS011;58751;50.708;7.134;2023-09-07T01:03:25;10.20;;;9.30;;
71091;SDS011;58751;50.708;7.134;2023-09-07T01:05:51;11.97;;;10.97;;
71091;SDS011;58751;50.708;7.134;2023-09-07T01:08:19;11.17;;;10.10;;
71091;SDS011;58751;50.708;7.134;2023-09-07T01:10:49;10.60;;;9.57;;
71091;SDS011;58751;50.708;7.134;2023-09-07T01:13:15;10.93;;;9.93;;
71091;SDS011;58751;50.708;7.134;2023-09-07T01:15:40;10.10;;;9.20;;
71091;SDS011;58751;50.708;7.134;2023-09-07T01:18:06;11.10;;;10.20;;
71091;SDS011;58751;50.708;7.134;2023-09-07T01:20:33;11.17;;;10.20;;
71091;SDS011;58751;50.708;7.134;2023-09-07T01:23:00;10.73;;;9.80;;
71091;SDS011;58751;50.708;7.134;2023-09-07T01:25:26;12.53;;;11.33;;
71091;SDS011;58751;50.708;7.134;2023-09-07T01:27:52;9.70;;;8.90;;
71091;SDS011;58751;50.708;7.134;2023-09-07T01:30:17;11.10;;;10.10;;
71091;SDS011;58751;50.708;7.134;2023-09-07T01:32:43;9.83;;;9.03;;
71091;SDS011;58751;50.708;7.134;2023-09-07T01:35:08;9.23;;;8.40;;
71091;SDS011;58751;50.708;7.134;2023-09-07T01:37:35;10.90;;;9.80;;
71091;SDS011;58751;50.708;7.134;2023-09-07T01:40:02;12.77;;;11.63;;
71091;SDS011;58751;50.708;7.134;2023-09-07T01:42:28;11.53;;;10.53;;
71091;SDS011;58751;50.708;7.134;2023-09-07T01:44:53;12.63;;;11.47;;
71091;SDS011;58751;50.708;7.134;2023-09-07T01:47:19;11.83;;;10.63;;
71091;SDS011;58751;50.708;7.134;2023-09-07T01:49:44;11.20;;;10.30;;
71091;SDS011;58751;50.708;7.134;2023-09-07T01:52:09;11.53;;;10.57;;
71091;SDS011;58751;50.708;7.134;2023-09-07T01:54:35;12.20;;;11.00;;
71091;SDS011;58751;50.708;7.134;2023-09-07T01:57:01;12.03;;;10.97;;
71091;SDS011;58751;50.708;7.134;2023-09-07T01:59:27;12.57;;;11.47;;
71091;SDS011;58751;50.708;7.134;2023-09-07T02:01:52;12.40;;;11.33;;
71091;SDS011;58751;50.708;7.134;2023-09-07T02:04:18;11.53;;;9.40;;
71091;SDS011;58751;50.708;7.134;2023-09-07T02:06:43;9.53;;;8.73;;
71091;SDS011;58751;50.708;7.134;2023-09-07T02:09:09;10.23;;;9.30;;
71091;SDS011;58751;50.708;7.134;2023-09-07T02:11:34;9.47;;;8.57;;
71091;SDS011;58751;50.708;7.134;2023-09-07T02:14:01;10.23;;;9.33;;
71091;SDS011;58751;50.708;7.134;2023-09-07T02:16:26;11.00;;;10.00;;
71091;SDS011;58751;50.708;7.134;2023-09-07T02:18:59;9.80;;;9.00;;
71091;SDS011;58751;50.708;7.134;2023-09-07T02:21:25;11.70;;;10.40;;
71091;SDS011;58751;50.708;7.134;2023-09-07T02:23:51;8.83;;;8.13;;
71091;SDS011;58751;50.708;7.134;2023-09-07T02:26:16;9.73;;;8.80;;
71091;SDS011;58751;50.708;7.134;2023-09-07T02:28:41;10.40;;;9.60;;
71091;SDS011;58751;50.708;7.134;2023-09-07T02:31:08;10.23;;;9.43;;
71091;SDS011;58751;50.708;7.134;2023-09-07T02:33:34;10.50;;;8.90;;
71091;SDS011;58751;50.708;7.134;2023-09-07T02:35:59;8.33;;;7.63;;
71091;SDS011;58751;50.708;7.134;2023-09-07T02:38:24;10.57;;;9.57;;
71091;SDS011;58751;50.708;7.134;2023-09-07T02:40:50;9.60;;;8.80;;
71091;SDS011;58751;50.708;7.134;2023-09-07T02:43:15;10.37;;;9.37;;
71091;SDS011;58751;50.708;7.134;2023-09-07T02:45:41;10.83;;;9.90;;
71091;SDS011;58751;50.708;7.134;2023-09-07T02:48:07;10.80;;;9.80;;
71091;SDS011;58751;50.708;7.134;2023-09-07T02:50:33;10.57;;;9.67;;
71091;SDS011;58751;50.708;7.134;2023-09-07T02:52:59;9.47;;;8.60;;
71091;SDS011;58751;50.708;7.134;2023-09-07T02:55:25;11.57;;;10.57;;
71091;SDS011;58751;50.708;7.134;2023-09-07T02:57:50;12.87;;;11.60;;
71091;SDS011;58751;50.708;7.134;2023-09-07T03:00:16;11.40;;;10.40;;
71091;SDS011;58751;50.708;7.134;2023-09-07T03:02:41;13.17;;;11.97;;
71091;SDS011;58751;50.708;7.134;2023-09-07T03:05:09;11.23;;;10.17;;
71091;SDS011;58751;50.708;7.134;2023-09-07T03:07:34;10.77;;;9.87;;
71091;SDS011;58751;50.708;7.134;2023-09-07T03:10:00;10.50;;;9.60;;
71091;SDS011;58751;50.708;7.134;2023-09-07T03:12:25;11.30;;;10.30;;
71091;SDS011;58751;50.708;7.134;2023-09-07T03:14:51;12.60;;;11.40;;
71091;SDS011;58751;50.708;7.134;2023-09-07T03:17:17;13.10;;;11.77;;
71091;SDS011;58751;50.708;7.134;2023-09-07T03:19:42;12.20;;;11.10;;
71091;SDS011;58751;50.708;7.134;2023-09-07T03:22:09;11.97;;;10.97;;
71091;SDS011;58751;50.708;7.134;2023-09-07T03:24:35;11.60;;;10.50;;
71091;SDS011;58751;50.708;7.134;2023-09-07T03:27:00;13.10;;;11.70;;
71091;SDS011;58751;50.708;7.134;2023-09-07T03:29:26;12.23;;;11.17;;
71091;SDS011;58751;50.708;7.134;2023-09-07T03:31:51;11.93;;;10.47;;
71091;SDS011;58751;50.708;7.134;2023-09-07T03:34:16;10.73;;;9.83;;
71091;SDS011;58751;50.708;7.134;2023-09-07T03:36:42;10.43;;;9.43;;
71091;SDS011;58751;50.708;7.134;2023-09-07T03:39:09;12.80;;;11.60;;
71091;SDS011;58751;50.708;7.134;2023-09-07T03:41:34;10.80;;;8.73;;
71091;SDS011;58751;50.708;7.134;2023-09-07T03:43:59;10.20;;;9.30;;
71091;SDS011;58751;50.708;7.134;2023-09-07T03:46:25;11.10;;;10.07;;
71091;SDS011;58751;50.708;7.134;2023-09-07T03:48:51;11.10;;;10.10;;
71091;SDS011;58751;50.708;7.134;2023-09-07T03:51:17;10.87;;;9.97;;
71091;SDS011;58751;50.708;7.134;2023-09-07T03:53:42;11.80;;;10.60;;
71091;SDS011;58751;50.708;7.134;2023-09-07T03:56:09;11.50;;;10.40;;
71091;SDS011;58751;50.708;7.134;2023-09-07T03:58:35;10.33;;;9.43;;
71091;SDS011;58751;50.708;7.134;2023-09-07T04:01:00;10.73;;;9.83;;
71091;SDS011;58751;50.708;7.134;2023-09-07T04:03:25;11.17;;;10.10;;
71091;SDS011;58751;50.708;7.134;2023-09-07T04:05:51;13.30;;;12.10;;
71091;SDS011;58751;50.708;7.134;2023-09-07T04:08:17;13.33;;;12.10;;
71091;SDS011;58751;50.708;7.134;2023-09-07T04:10:42;12.60;;;11.50;;
71091;SDS011;58751;50.708;7.134;2023-09-07T04:13:09;13.23;;;12.07;;
71091;SDS011;58751;50.708;7.134;2023-09-07T04:15:40;14.37;;;13.10;;
71091;SDS011;58751;50.708;7.134;2023-09-07T04:18:06;13.60;;;12.40;;
71091;SDS011;58751;50.708;7.134;2023-09-07T04:20:32;14.10;;;12.90;;
71091;SDS011;58751;50.708;7.134;2023-09-07T04:22:57;13.00;;;11.80;;
71091;SDS011;58751;50.708;7.134;2023-09-07T04:25:22;14.70;;;13.20;;
71091;SDS011;58751;50.708;7.134;2023-09-07T04:27:48;13.33;;;12.13;;
71091;SDS011;58751;50.708;7.134;2023-09-07T04:30:15;14.10;;;12.70;;
71091;SDS011;58751;50.708;7.134;2023-09-07T04:32:40;12.10;;;11.10;;
71091;SDS011;58751;50.708;7.134;2023-09-07T04:35:06;16.83;;;12.67;;
71091;SDS011;58751;50.708;7.134;2023-09-07T04:37:32;12.13;;;11.03;;
71091;SDS011;58751;50.708;7.134;2023-09-07T04:39:57;13.20;;;11.90;;
71091;SDS011;58751;50.708;7.134;2023-09-07T04:42:23;13.47;;;12.17;;
71091;SDS011;58751;50.708;7.134;2023-09-07T04:44:48;13.70;;;12.30;;
71091;SDS011;58751;50.708;7.134;2023-09-07T04:47:15;12.80;;;11.80;;
71091;SDS011;58751;50.708;7.134;2023-09-07T04:49:40;13.03;;;11.93;;
71091;SDS011;58751;50.708;7.134;2023-09-07T04:52:06;14.90;;;13.60;;
71091;SDS011;58751;50.708;7.134;2023-09-07T04:54:31;13.80;;;12.50;;
71091;SDS011;58751;50.708;7.134;2023-09-07T04:56:57;12.70;;;11.60;;
71091;SDS011;58751;50.708;7.134;2023-09-07T04:59:22;12.77;;;11.57;;
71091;SDS011;58751;50.708;7.134;2023-09-07T05:01:47;13.90;;;12.60;;
71091;SDS011;58751;50.708;7.134;2023-09-07T05:04:14;13.90;;;12.60;;
71091;SDS011;58751;50.708;7.134;2023-09-07T05:06:40;13.40;;;12.30;;
71091;SDS011;58751;50.708;7.134;2023-09-07T05:09:05;12.70;;;11.63;;
71091;SDS011;58751;50.708;7.134;2023-09-07T05:11:30;11.67;;;10.67;;
71091;SDS011;58751;50.708;7.134;2023-09-07T05:13:56;11.13;;;10.23;;
71091;SDS011;58751;50.708;7.134;2023-09-07T05:16:21;17.17;;;11.40;;
71091;SDS011;58751;50.708;7.134;2023-09-07T05:18:47;12.53;;;11.43;;
71091;SDS011;58751;50.708;7.134;2023-09-07T05:21:14;12.63;;;10.87;;
71091;SDS011;58751;50.708;7.134;2023-09-07T05:23:39;11.80;;;10.73;;
71091;SDS011;58751;50.708;7.134;2023-09-07T05:26:05;13.07;;;10.80;;
71091;SDS011;58751;50.708;7.134;2023-09-07T05:28:30;12.10;;;11.00;;
71091;SDS011;58751;50.708;7.134;2023-09-07T05:30:56;11.07;;;10.17;;
71091;SDS011;58751;50.708;7.134;2023-09-07T05:33:21;11.63;;;10.63;;
71091;SDS011;58751;50.708;7.134;2023-09-07T05:35:47;10.87;;;9.97;;
71091;SDS011;58751;50.708;7.134;2023-09-07T05:38:14;10.93;;;9.97;;
71091;SDS011;58751;50.708;7.134;2023-09-07T05:40:40;9.77;;;8.97;;
71091;SDS011;58751;50.708;7.134;2023-09-07T05:43:07;10.10;;;9.30;;
71091;SDS011;58751;50.708;7.134;2023-09-07T05:45:33;9.83;;;8.93;;
71091;SDS011;58751;50.708;7.134;2023-09-07T05:47:59;9.67;;;8.87;;
71091;SDS011;58751;50.708;7.134;2023-09-07T05:50:25;9.97;;;8.40;;
71091;SDS011;58751;50.708;7.134;2023-09-07T05:52:51;9.87;;;8.90;;
71091;SDS011;58751;50.708;7.134;2023-09-07T05:55:18;9.20;;;8.50;;
71091;SDS011;58751;50.708;7.134;2023-09-07T05:57:45;9.80;;;9.00;;
71091;SDS011;58751;50.708;7.134;2023-09-07T06:00:10;8.43;;;7.73;;
71091;SDS011;58751;50.708;7.134;2023-09-07T06:02:37;10.37;;;8.43;;
71091;SDS011;58751;50.708;7.134;2023-09-07T06:05:03;8.60;;;7.60;;
71091;SDS011;58751;50.708;7.134;2023-09-07T06:07:28;8.57;;;7.77;;
71091;SDS011;58751;50.708;7.134;2023-09-07T06:09:54;9.67;;;7.83;;
71091;SDS011;58751;50.708;7.134;2023-09-07T06:12:20;9.03;;;7.07;;
71091;SDS011;58751;50.708;7.134;2023-09-07T06:14:46;7.47;;;6.77;;
71091;SDS011;58751;50.708;7.134;2023-09-07T06:17:11;9.27;;;7.60;;
71091;SDS011;58751;50.708;7.134;2023-09-07T06:19:37;7.53;;;6.80;;
71091;SDS011;58751;50.708;7.134;2023-09-07T06:22:02;7.27;;;6.67;;
71091;SDS011;58751;50.708;7.134;2023-09-07T06:24:29;8.23;;;7.00;;
71091;SDS011;58751;50.708;7.134;2023-09-07T06:26:56;7.23;;;6.63;;
71091;SDS011;58751;50.708;7.134;2023-09-07T06:29:23;7.00;;;6.50;;
71091;SDS011;58751;50.708;7.134;2023-09-07T06:31:48;7.47;;;6.87;;
71091;SDS011;58751;50.708;7.134;2023-09-07T06:34:14;7.40;;;6.13;;
71091;SDS011;58751;50.708;7.134;2023-09-07T06:36:39;10.97;;;7.23;;
71091;SDS011;58751;50.708;7.134;2023-09-07T06:39:05;7.80;;;7.00;;
71091;SDS011;58751;50.708;7.134;2023-09-07T06:41:30;9.10;;;7.23;;
71091;SDS011;58751;50.708;7.134;2023-09-07T06:43:56;10.30;;;7.67;;
71091;SDS011;58751;50.708;7.134;2023-09-07T06:46:22;9.23;;;7.00;;
71091;SDS011;58751;50.708;7.134;2023-09-07T06:48:48;7.33;;;6.73;;
71091;SDS011;58751;50.708;7.134;2023-09-07T06:51:13;7.40;;;6.70;;
71091;SDS011;58751;50.708;7.134;2023-09-07T06:53:39;6.80;;;6.30;;
71091;SDS011;58751;50.708;7.134;2023-09-07T06:56:04;6.33;;;5.87;;
71091;SDS011;58751;50.708;7.134;2023-09-07T06:58:29;7.20;;;6.50;;
71091;SDS011;58751;50.708;7.134;2023-09-07T07:00:56;6.37;;;5.77;;
71091;SDS011;58751;50.708;7.134;2023-09-07T07:03:24;8.90;;;7.50;;
71091;SDS011;58751;50.708;7.134;2023-09-07T07:05:51;6.77;;;6.10;;
71091;SDS011;58751;50.708;7.134;2023-09-07T07:08:16;7.57;;;6.77;;
71091;SDS011;58751;50.708;7.134;2023-09-07T07:10:42;6.70;;;6.17;;
71091;SDS011;58751;50.708;7.134;2023-09-07T07:13:07;6.93;;;6.10;;
71091;SDS011;58751;50.708;7.134;2023-09-07T07:15:32;6.23;;;5.73;;
71091;SDS011;58751;50.708;7.134;2023-09-07T07:17:58;5.90;;;5.40;;
71091;SDS011;58751;50.708;7.134;2023-09-07T07:20:25;7.30;;;5.67;;
71091;SDS011;58751;50.708;7.134;2023-09-07T07:22:50;6.80;;;5.40;;
71091;SDS011;58751;50.708;7.134;2023-09-07T07:25:16;7.60;;;5.70;;
71091;SDS011;58751;50.708;7.134;2023-09-07T07:27:41;5.70;;;5.30;;
71091;SDS011;58751;50.708;7.134;2023-09-07T07:30:07;6.10;;;5.60;;
71091;SDS011;58751;50.708;7.134;2023-09-07T07:32:33;5.20;;;4.80;;
71091;SDS011;58751;50.708;7.134;2023-09-07T07:34:58;6.20;;;5.60;;
71091;SDS011;58751;50.708;7.134;2023-09-07T07:37:25;6.25;;;5.65;;
71091;SDS011;58751;50.708;7.134;2023-09-07T07:39:51;5.97;;;5.10;;
71091;SDS011;58751;50.708;7.134;2023-09-07T07:42:16;5.67;;;5.27;;
71091;SDS011;58751;50.708;7.134;2023-09-07T07:44:42;5.13;;;4.80;;
71091;SDS011;58751;50.708;7.134;2023-09-07T07:47:07;5.60;;;5.20;;
71091;SDS011;58751;50.708;7.134;2023-09-07T07:49:32;6.10;;;5.60;;
71091;SDS011;58751;50.708;7.134;2023-09-07T07:51:58;5.43;;;4.90;;
71091;SDS011;58751;50.708;7.134;2023-09-07T07:54:25;5.53;;;5.13;;
71091;SDS011;58751;50.708;7.134;2023-09-07T07:56:51;4.77;;;4.30;;
71091;SDS011;58751;50.708;7.134;2023-09-07T07:59:16;7.20;;;4.73;;
71091;SDS011;58751;50.708;7.134;2023-09-07T08:01:41;6.60;;;6.10;;
71091;SDS011;58751;50.708;7.134;2023-09-07T08:04:07;5.17;;;4.87;;
71091;SDS011;58751;50.708;7.134;2023-09-07T08:06:33;5.67;;;5.17;;
71091;SDS011;58751;50.708;7.134;2023-09-07T08:08:58;4.87;;;4.37;;
71091;SDS011;58751;50.708;7.134;2023-09-07T08:11:25;4.70;;;4.30;;
71091;SDS011;58751;50.708;7.134;2023-09-07T08:13:51;5.80;;;5.23;;
71091;SDS011;58751;50.708;7.134;2023-09-07T08:16:16;5.70;;;5.27;;
71091;SDS011;58751;50.708;7.134;2023-09-07T08:18:42;5.63;;;5.10;;
71091;SDS011;58751;50.708;7.134;2023-09-07T08:21:07;5.63;;;5.13;;
71091;SDS011;58751;50.708;7.134;2023-09-07T08:23:32;6.83;;;4.80;;
71091;SDS011;58751;50.708;7.134;2023-09-07T08:25:58;8.07;;;5.30;;
71091;SDS011;58751;50.708;7.134;2023-09-07T08:28:25;7.90;;;4.83;;
71091;SDS011;58751;50.708;7.134;2023-09-07T08:30:51;5.50;;;5.00;;
71091;SDS011;58751;50.708;7.134;2023-09-07T08:33:17;4.80;;;4.40;;
71091;SDS011;58751;50.708;7.134;2023-09-07T08:35:42;4.70;;;4.30;;
71091;SDS011;58751;50.708;7.134;2023-09-07T08:38:07;4.90;;;4.60;;
71091;SDS011;58751;50.708;7.134;2023-09-07T08:40:33;6.17;;;5.60;;
71091;SDS011;58751;50.708;7.134;2023-09-07T08:42:59;4.90;;;4.60;;
71091;SDS011;58751;50.708;7.134;2023-09-07T08:45:26;4.97;;;4.57;;
71091;SDS011;58751;50.708;7.134;2023-09-07T08:47:54;5.40;;;4.90;;
71091;SDS011;58751;50.708;7.134;2023-09-07T08:50:21;7.00;;;4.90;;
71091;SDS011;58751;50.708;7.134;2023-09-07T08:52:47;4.90;;;4.50;;
71091;SDS011;58751;50.708;7.134;2023-09-07T08:55:14;6.07;;;5.33;;
71091;SDS011;58751;50.708;7.134;2023-09-07T08:57:39;5.33;;;4.93;;
71091;SDS011;58751;50.708;7.134;2023-09-07T09:00:05;5.70;;;5.20;;
71091;SDS011;58751;50.708;7.134;2023-09-07T09:02:33;6.33;;;4.80;;
71091;SDS011;58751;50.708;7.134;2023-09-07T09:04:59;5.77;;;5.20;;
71091;SDS011;58751;50.708;7.134;2023-09-07T09:07:25;4.77;;;4.40;;
71091;SDS011;58751;50.708;7.134;2023-09-07T09:09:51;5.27;;;4.87;;
71091;SDS011;58751;50.708;7.134;2023-09-07T09:12:16;5.47;;;4.70;;
71091;SDS011;58751;50.708;7.134;2023-09-07T09:14:42;6.80;;;4.63;;
71091;SDS011;58751;50.708;7.134;2023-09-07T09:17:10;5.67;;;5.17;;
71091;SDS011;58751;50.708;7.134;2023-09-07T09:19:37;4.63;;;4.20;;
71091;SDS011;58751;50.708;7.134;2023-09-07T09:22:03;4.73;;;4.33;;
71091;SDS011;58751;50.708;7.134;2023-09-07T09:24:31;6.10;;;4.60;;
71091;SDS011;58751;50.708;7.134;2023-09-07T09:26:57;6.20;;;4.73;;
71091;SDS011;58751;50.708;7.134;2023-09-07T09:29:22;5.37;;;4.70;;
71091;SDS011;58751;50.708;7.134;2023-09-07T09:31:48;4.97;;;4.57;;
71091;SDS011;58751;50.708;7.134;2023-09-07T09:34:13;5.63;;;5.23;;
71091;SDS011;58751;50.708;7.134;2023-09-07T09:36:41;6.03;;;4.27;;
71091;SDS011;58751;50.708;7.134;2023-09-07T09:39:07;5.40;;;5.00;;
71091;SDS011;58751;50.708;7.134;2023-09-07T09:41:33;5.47;;;5.07;;
71091;SDS011;58751;50.708;7.134;2023-09-07T09:43:58;7.30;;;4.70;;
71091;SDS011;58751;50.708;7.134;2023-09-07T09:46:24;4.73;;;4.43;;
71091;SDS011;58751;50.708;7.134;2023-09-07T09:48:50;6.90;;;4.80;;
71091;SDS011;58751;50.708;7.134;2023-09-07T09:51:16;5.50;;;5.10;;
71091;SDS011;58751;50.708;7.134;2023-09-07T09:53:44;4.90;;;4.60;;
71091;SDS011;58751;50.708;7.134;2023-09-07T09:56:10;6.37;;;5.00;;
71091;SDS011;58751;50.708;7.134;2023-09-07T09:58:35;6.00;;;5.33;;
71091;SDS011;58751;50.708;7.134;2023-09-07T10:01:01;5.90;;;5.50;;
71091;SDS011;58751;50.708;7.134;2023-09-07T10:03:28;7.53;;;5.37;;
71091;SDS011;58751;50.708;7.134;2023-09-07T10:05:54;7.10;;;6.60;;
71091;SDS011;58751;50.708;7.134;2023-09-07T10:08:20;5.67;;;5.27;;
71091;SDS011;58751;50.708;7.134;2023-09-07T10:10:47;5.93;;;4.93;;
71091;SDS011;58751;50.708;7.134;2023-09-07T10:13:13;5.03;;;4.63;;
71091;SDS011;58751;50.708;7.134;2023-09-07T10:15:39;5.43;;;5.03;;
71091;SDS011;58751;50.708;7.134;2023-09-07T10:18:05;6.57;;;5.27;;
71091;SDS011;58751;50.708;7.134;2023-09-07T10:20:34;5.93;;;5.40;;
71091;SDS011;58751;50.708;7.134;2023-09-07T10:23:11;6.50;;;5.40;;
71091;SDS011;58751;50.708;7.134;2023-09-07T10:25:36;5.63;;;5.23;;
71091;SDS011;58751;50.708;7.134;2023-09-07T10:28:03;5.23;;;4.93;;
71091;SDS011;58751;50.708;7.134;2023-09-07T10:30:29;5.20;;;4.80;;
71091;SDS011;58751;50.708;7.134;2023-09-07T10:32:56;5.07;;;4.73;;
71091;SDS011;58751;50.708;7.134;2023-09-07T10:35:21;6.27;;;5.20;;
71091;SDS011;58751;50.708;7.134;2023-09-07T10:37:47;5.03;;;4.63;;
71091;SDS011;58751;50.708;7.134;2023-09-07T10:40:12;4.93;;;4.60;;
71091;SDS011;58751;50.708;7.134;2023-09-07T10:42:38;4.97;;;4.67;;
71091;SDS011;58751;50.708;7.134;2023-09-07T10:45:12;7.77;;;4.97;;
71091;SDS011;58751;50.708;7.134;2023-09-07T10:47:41;4.77;;;4.37;;
71091;SDS011;58751;50.708;7.134;2023-09-07T10:50:07;5.27;;;4.77;;
71091;SDS011;58751;50.708;7.134;2023-09-07T10:52:33;4.73;;;4.43;;
71091;SDS011;58751;50.708;7.134;2023-09-07T10:54:59;4.90;;;4.50;;
71091;SDS011;58751;50.708;7.134;2023-09-07T10:57:24;5.53;;;4.83;;
71091;SDS011;58751;50.708;7.134;2023-09-07T10:59:50;5.30;;;4.90;;
71091;SDS011;58751;50.708;7.134;2023-09-07T11:02:16;4.97;;;4.67;;
71091;SDS011;58751;50.708;7.134;2023-09-07T11:04:42;4.70;;;4.40;;
71091;SDS011;58751;50.708;7.134;2023-09-07T11:07:07;4.13;;;3.93;;
71091;SDS011;58751;50.708;7.134;2023-09-07T11:09:33;7.13;;;4.50;;
71091;SDS011;58751;50.708;7.134;2023-09-07T11:12:03;5.20;;;4.50;;
71091;SDS011;58751;50.708;7.134;2023-09-07T11:14:29;5.03;;;4.50;;
71091;SDS011;58751;50.708;7.134;2023-09-07T11:16:55;5.50;;;5.00;;
71091;SDS011;58751;50.708;7.134;2023-09-07T11:19:22;4.67;;;4.27;;
71091;SDS011;58751;50.708;7.134;2023-09-07T11:21:48;5.27;;;4.77;;
71091;SDS011;58751;50.708;7.134;2023-09-07T11:24:13;5.10;;;4.60;;
71091;SDS011;58751;50.708;7.134;2023-09-07T11:26:42;4.40;;;4.07;;
71091;SDS011;58751;50.708;7.134;2023-09-07T11:29:08;4.00;;;3.70;;
71091;SDS011;58751;50.708;7.134;2023-09-07T11:31:33;5.00;;;4.60;;
71091;SDS011;58751;50.708;7.134;2023-09-07T11:33:58;5.20;;;4.70;;
71091;SDS011;58751;50.708;7.134;2023-09-07T11:36:25;5.30;;;4.90;;
71091;SDS011;58751;50.708;7.134;2023-09-07T11:38:51;4.67;;;4.37;;
71091;SDS011;58751;50.708;7.134;2023-09-07T11:41:16;5.00;;;4.60;;
71091;SDS011;58751;50.708;7.134;2023-09-07T11:43:41;5.17;;;4.67;;
71091;SDS011;58751;50.708;7.134;2023-09-07T11:46:07;5.53;;;5.13;;
71091;SDS011;58751;50.708;7.134;2023-09-07T11:48:32;5.20;;;4.70;;
71091;SDS011;58751;50.708;7.134;2023-09-07T11:50:58;4.30;;;3.90;;
71091;SDS011;58751;50.708;7.134;2023-09-07T11:53:24;5.10;;;4.70;;
71091;SDS011;58751;50.708;7.134;2023-09-07T11:55:50;5.00;;;4.53;;
71091;SDS011;58751;50.708;7.134;2023-09-07T11:58:15;5.13;;;4.60;;
71091;SDS011;58751;50.708;7.134;2023-09-07T12:00:41;4.77;;;4.37;;
71091;SDS011;58751;50.708;7.134;2023-09-07T12:03:06;4.60;;;4.27;;
71091;SDS011;58751;50.708;7.134;2023-09-07T12:05:32;5.43;;;5.03;;
71091;SDS011;58751;50.708;7.134;2023-09-07T12:07:57;4.40;;;4.10;;
71091;SDS011;58751;50.708;7.134;2023-09-07T12:10:24;5.60;;;5.00;;
71091;SDS011;58751;50.708;7.134;2023-09-07T12:12:49;4.60;;;4.30;;
71091;SDS011;58751;50.708;7.134;2023-09-07T12:15:15;4.93;;;4.53;;
71091;SDS011;58751;50.708;7.134;2023-09-07T12:17:40;4.83;;;4.53;;
71091;SDS011;58751;50.708;7.134;2023-09-07T12:20:06;4.50;;;4.20;;
71091;SDS011;58751;50.708;7.134;2023-09-07T12:22:32;4.70;;;4.40;;
71091;SDS011;58751;50.708;7.134;2023-09-07T12:24:57;7.70;;;5.43;;
71091;SDS011;58751;50.708;7.134;2023-09-07T12:27:24;4.20;;;4.00;;
71091;SDS011;58751;50.708;7.134;2023-09-07T12:29:50;5.50;;;4.90;;
71091;SDS011;58751;50.708;7.134;2023-09-07T12:32:15;4.43;;;4.00;;
71091;SDS011;58751;50.708;7.134;2023-09-07T12:34:43;4.50;;;4.10;;
71091;SDS011;58751;50.708;7.134;2023-09-07T12:37:09;4.80;;;4.50;;
71091;SDS011;58751;50.708;7.134;2023-09-07T12:39:34;5.07;;;4.70;;
71091;SDS011;58751;50.708;7.134;2023-09-07T12:42:00;5.17;;;4.77;;
71091;SDS011;58751;50.708;7.134;2023-09-07T12:44:27;4.50;;;4.20;;
71091;SDS011;58751;50.708;7.134;2023-09-07T12:46:52;4.97;;;4.57;;
71091;SDS011;58751;50.708;7.134;2023-09-07T12:49:18;4.93;;;4.57;;
71091;SDS011;58751;50.708;7.134;2023-09-07T12:51:45;5.30;;;4.87;;
71091;SDS011;58751;50.708;7.134;2023-09-07T12:54:11;6.87;;;4.63;;
71091;SDS011;58751;50.708;7.134;2023-09-07T12:56:37;5.03;;;4.30;;
71091;SDS011;58751;50.708;7.134;2023-09-07T12:59:03;4.70;;;4.40;;
71091;SDS011;58751;50.708;7.134;2023-09-07T13:01:30;4.20;;;3.87;;
71091;SDS011;58751;50.708;7.134;2023-09-07T13:03:55;5.10;;;4.70;;
71091;SDS011;58751;50.708;7.134;2023-09-07T13:06:21;5.80;;;5.20;;
71091;SDS011;58751;50.708;7.134;2023-09-07T13:08:46;5.70;;;5.17;;
71091;SDS011;58751;50.708;7.134;2023-09-07T13:11:11;4.90;;;4.50;;
71091;SDS011;58751;50.708;7.134;2023-09-07T13:13:37;5.97;;;4.83;;
71091;SDS011;58751;50.708;7.134;2023-09-07T13:16:02;4.70;;;4.30;;
71091;SDS011;58751;50.708;7.134;2023-09-07T13:18:29;7.07;;;5.23;;
71091;SDS011;58751;50.708;7.134;2023-09-07T13:20:55;5.00;;;4.70;;
71091;SDS011;58751;50.708;7.134;2023-09-07T13:23:21;4.80;;;4.40;;
71091;SDS011;58751;50.708;7.134;2023-09-07T13:25:46;7.73;;;5.07;;
71091;SDS011;58751;50.708;7.134;2023-09-07T13:28:12;5.07;;;4.67;;
71091;SDS011;58751;50.708;7.134;2023-09-07T13:30:37;4.70;;;4.40;;
71091;SDS011;58751;50.708;7.134;2023-09-07T13:33:03;5.17;;;4.77;;
71091;SDS011;58751;50.708;7.134;2023-09-07T13:35:30;5.53;;;5.03;;
71091;SDS011;58751;50.708;7.134;2023-09-07T13:37:56;4.83;;;4.50;;
71091;SDS011;58751;50.708;7.134;2023-09-07T13:40:21;5.07;;;4.63;;
71091;SDS011;58751;50.708;7.134;2023-09-07T13:42:47;4.77;;;4.37;;
71091;SDS011;58751;50.708;7.134;2023-09-07T13:45:13;5.53;;;5.10;;
71091;SDS011;58751;50.708;7.134;2023-09-07T13:47:38;5.53;;;5.13;;
71091;SDS011;58751;50.708;7.134;2023-09-07T13:50:04;4.60;;;4.30;;
71091;SDS011;58751;50.708;7.134;2023-09-07T13:52:32;5.90;;;5.40;;
71091;SDS011;58751;50.708;7.134;2023-09-07T13:54:58;4.50;;;4.20;;
71091;SDS011;58751;50.708;7.134;2023-09-07T13:57:23;5.37;;;4.80;;
71091;SDS011;58751;50.708;7.134;2023-09-07T13:59:48;5.03;;;4.67;;
71091;SDS011;58751;50.708;7.134;2023-09-07T14:02:14;5.37;;;4.97;;
71091;SDS011;58751;50.708;7.134;2023-09-07T14:04:39;8.17;;;5.93;;
71091;SDS011;58751;50.708;7.134;2023-09-07T14:07:05;4.80;;;4.50;;
71091;SDS011;58751;50.708;7.134;2023-09-07T14:09:32;5.93;;;5.43;;
71091;SDS011;58751;50.708;7.134;2023-09-07T14:11:57;5.87;;;5.10;;
71091;SDS011;58751;50.708;7.134;2023-09-07T14:14:22;6.13;;;4.50;;
71091;SDS011;58751;50.708;7.134;2023-09-07T14:16:48;4.63;;;4.33;;
71091;SDS011;58751;50.708;7.134;2023-09-07T14:19:13;5.83;;;4.30;;
71091;SDS011;58751;50.708;7.134;2023-09-07T14:21:39;6.23;;;5.57;;
71091;SDS011;58751;50.708;7.134;2023-09-07T14:24:04;5.70;;;4.80;;
71091;SDS011;58751;50.708;7.134;2023-09-07T14:26:31;4.80;;;4.40;;
71091;SDS011;58751;50.708;7.134;2023-09-07T14:29:00;8.20;;;5.17;;
71091;SDS011;58751;50.708;7.134;2023-09-07T14:31:25;5.73;;;5.33;;